Time;durP1;ratioP1;P1;durP2;ratioP2;P2;SDS_P1;SDS_P2;PMS_P1;PMS_P2;Temp;Humidity;BMP_temperature;BMP_pressure;BME280_temperature;BME280_humidity;BME280_pressure;Samples;Min_cycle;Max_cycle;Signal;HPM_P1;HPM_P2
2021/10/29 00:00:26;;;;;;;55.70;39.30;;;;;;;7.39;85.80;101164.63;85670;1319;93000;-62
2021/10/29 00:02:47;;;;;;;60.80;42.10;;;;;;;7.44;85.90;101162.35;85669;1324;78917;-63
2021/10/29 00:04:58;;;;;;;57.80;39.30;;;;;;;7.42;86.00;101161.35;85701;1323;80235;-63
2021/10/29 00:07:07;;;;;;;51.80;36.20;;;;;;;7.42;85.94;101159.36;85752;1317;96046;-68
2021/10/29 00:09:15;;;;;;;56.70;38.80;;;;;;;7.41;85.98;101154.45;85754;1319;87114;-65
2021/10/29 00:11:22;;;;;;;57.30;39.90;;;;;;;7.40;86.21;101154.14;85783;1323;94187;-63
2021/10/29 00:13:30;;;;;;;56.40;40.70;;;;;;;7.42;85.95;101152.34;85765;1316;80712;-64
2021/10/29 00:15:38;;;;;;;58.80;40.20;;;;;;;7.42;85.96;101152.54;85689;1316;80884;-64
2021/10/29 00:17:47;;;;;;;55.80;40.20;;;;;;;7.39;85.96;101151.02;85737;1323;97136;-63
2021/10/29 00:19:54;;;;;;;60.50;40.30;;;;;;;7.37;85.79;101149.49;85736;1316;86450;-62
2021/10/29 00:22:03;;;;;;;56.30;40.00;;;;;;;7.35;85.76;101148.73;85665;1320;94794;-63
2021/10/29 00:24:13;;;;;;;59.80;40.50;;;;;;;7.34;85.83;101147.27;85737;1316;78662;-62
2021/10/29 00:26:21;;;;;;;59.90;39.60;;;;;;;7.33;85.75;101145.86;85751;1316;81341;-63
2021/10/29 00:28:28;;;;;;;55.20;40.70;;;;;;;7.33;85.68;101140.86;85762;1316;97426;-63
2021/10/29 00:30:36;;;;;;;58.80;38.80;;;;;;;7.32;85.70;101140.23;85721;1314;86773;-62
2021/10/29 00:32:46;;;;;;;57.60;39.90;;;;;;;7.32;85.78;101140.04;85663;1317;94843;-61
2021/10/29 00:34:54;;;;;;;59.90;41.40;;;;;;;7.34;85.56;101139.34;85683;1316;78540;-60
2021/10/29 00:37:02;;;;;;;58.70;42.00;;;;;;;7.33;85.58;101138.17;85653;1320;81666;-62
2021/10/29 00:39:09;;;;;;;59.80;40.70;;;;;;;7.30;85.65;101137.06;85706;1315;96729;-63
2021/10/29 00:41:17;;;;;;;56.70;38.70;;;;;;;7.28;85.79;101137.09;85710;1321;88117;-63
2021/10/29 00:43:28;;;;;;;57.20;40.10;;;;;;;7.26;85.71;101131.33;85760;1317;94162;-62
2021/10/29 00:45:40;;;;;;;63.60;42.60;;;;;;;7.26;85.58;101135.86;85707;1318;78997;-62
2021/10/29 00:47:51;;;;;;;58.50;41.90;;;;;;;7.25;85.81;101133.98;85706;1316;81354;-63
2021/10/29 00:49:58;;;;;;;62.90;41.30;;;;;;;7.22;85.66;101131.79;85595;1319;96630;-62
2021/10/29 00:52:07;;;;;;;60.50;40.60;;;;;;;7.21;85.57;101130.96;85762;1320;88384;-62
2021/10/29 00:54:18;;;;;;;57.50;38.80;;;;;;;7.19;85.52;101129.23;85748;1313;93400;-62
2021/10/29 00:56:26;;;;;;;55.00;38.80;;;;;;;7.20;85.60;101127.20;85747;1317;79092;-64
2021/10/29 00:58:36;;;;;;;56.60;39.20;;;;;;;7.20;85.48;101128.44;85769;1316;83203;-63
2021/10/29 01:00:44;;;;;;;57.00;39.80;;;;;;;7.17;85.44;101127.45;85674;1316;96210;-62
2021/10/29 01:02:53;;;;;;;61.10;41.30;;;;;;;7.14;85.46;101126.08;85664;1316;88687;-63
2021/10/29 01:05:03;;;;;;;54.50;39.00;;;;;;;7.10;85.50;101125.63;85744;1317;94495;-63
2021/10/29 01:07:12;;;;;;;57.10;39.20;;;;;;;7.05;85.58;101124.63;85746;1323;82036;-63
2021/10/29 01:09:22;;;;;;;55.40;39.70;;;;;;;7.04;85.47;101121.70;85791;1320;80654;-64
2021/10/29 01:11:33;;;;;;;60.50;41.60;;;;;;;7.03;85.45;101117.31;85747;1316;97534;-63
2021/10/29 01:13:43;;;;;;;57.70;40.40;;;;;;;7.04;85.35;101112.92;85708;1316;87950;-66
2021/10/29 01:15:50;;;;;;;59.80;41.30;;;;;;;7.01;85.47;101112.85;85764;1317;94136;-65
2021/10/29 01:17:58;;;;;;;58.90;41.10;;;;;;;7.00;85.41;101110.43;85717;1323;81727;-62
2021/10/29 01:20:09;;;;;;;59.20;40.00;;;;;;;6.97;85.37;101107.02;85664;1316;81860;-66
2021/10/29 01:22:21;;;;;;;60.10;40.20;;;;;;;6.96;85.40;101106.40;85825;1316;97116;-62
2021/10/29 01:24:29;;;;;;;61.30;41.60;;;;;;;6.94;85.71;101105.68;85704;1313;86345;-63
2021/10/29 01:26:36;;;;;;;60.70;43.50;;;;;;;6.93;85.62;101102.71;85746;1316;94323;-63
2021/10/29 01:28:48;;;;;;;60.40;42.50;;;;;;;6.93;85.59;101103.52;85818;1316;79489;-65
2021/10/29 01:30:55;;;;;;;58.30;40.90;;;;;;;6.91;85.47;101100.31;85751;1316;82288;-62
2021/10/29 01:33:02;;;;;;;58.50;42.00;;;;;;;6.90;85.60;101097.70;85767;1317;98248;-66
2021/10/29 01:35:16;;;;;;;61.40;41.30;;;;;;;6.90;85.50;101096.02;85795;1316;88285;-65
2021/10/29 01:37:22;;;;;;;;;;;;;;;6.88;85.46;101097.65;85820;1322;93740;-66
2021/10/29 01:39:29;;;;;;;60.70;40.70;;;;;;;6.85;85.47;101094.93;85665;1316;80103;-65
2021/10/29 01:41:37;;;;;;;61.40;40.80;;;;;;;6.84;85.52;101095.26;85794;1317;80503;-62
2021/10/29 01:43:46;;;;;;;61.30;42.10;;;;;;;6.85;85.39;101091.40;85772;1320;96639;-64
2021/10/29 01:45:54;;;;;;;59.00;41.60;;;;;;;6.86;85.42;101089.80;85786;1316;88091;-67
2021/10/29 01:48:06;;;;;;;58.60;42.00;;;;;;;6.88;85.40;101092.48;85818;1315;94564;-60
2021/10/29 01:50:14;;;;;;;61.70;40.40;;;;;;;6.89;85.33;101090.05;85771;1317;77588;-61
2021/10/29 01:52:22;;;;;;;58.40;40.90;;;;;;;6.88;85.50;101092.82;85737;1319;81958;-61
2021/10/29 01:54:33;;;;;;;62.80;41.50;;;;;;;6.86;85.51;101089.09;85712;1316;97461;-61
2021/10/29 01:56:40;;;;;;;57.60;39.90;;;;;;;6.84;85.60;101086.30;85694;1316;87217;-61
2021/10/29 01:58:51;;;;;;;59.90;39.40;;;;;;;6.81;85.49;101084.03;85718;1315;94565;-62
2021/10/29 02:00:59;;;;;;;56.60;39.50;;;;;;;6.83;85.50;101086.71;85793;1309;80379;-61
2021/10/29 02:03:06;;;;;;;62.00;42.50;;;;;;;6.81;85.47;101082.21;85747;1320;81046;-62
2021/10/29 02:05:14;;;;;;;59.60;41.00;;;;;;;6.79;85.59;101077.63;85686;1316;98909;-62
2021/10/29 02:07:24;;;;;;;63.20;43.10;;;;;;;6.78;85.48;101075.77;85666;1316;88869;-62
2021/10/29 02:09:34;;;;;;;63.50;42.90;;;;;;;6.78;85.36;101072.19;85774;1316;95308;-62
2021/10/29 02:11:43;;;;;;;60.00;41.80;;;;;;;6.77;85.63;101068.20;85715;1319;78906;-62
2021/10/29 02:13:51;;;;;;;66.40;44.70;;;;;;;6.77;85.62;101068.73;85779;1317;81941;-62
2021/10/29 02:15:58;;;;;;;63.20;42.00;;;;;;;6.77;85.41;101069.58;85656;1316;96939;-64
2021/10/29 02:18:09;;;;;;;66.70;42.20;;;;;;;6.76;85.59;101069.13;85702;1320;87802;-63
2021/10/29 02:20:17;;;;;;;60.30;40.50;;;;;;;6.74;85.52;101067.32;85751;1320;95094;-63
2021/10/29 02:22:24;;;;;;;56.20;40.10;;;;;;;6.73;85.50;101068.23;85645;1317;80445;-65
2021/10/29 02:24:35;;;;;;;57.90;42.00;;;;;;;6.71;85.26;101065.87;85700;1316;81910;-63
2021/10/29 02:26:42;;;;;;;62.00;41.80;;;;;;;6.69;85.49;101068.20;85690;1317;97238;-64
2021/10/29 02:28:50;;;;;;;57.10;39.50;;;;;;;6.70;85.41;101067.09;85687;1323;88864;-65
2021/10/29 02:30:57;;;;;;;57.50;40.10;;;;;;;6.67;85.38;101061.27;85689;1316;94659;-64
2021/10/29 02:33:08;;;;;;;51.70;36.80;;;;;;;6.66;85.43;101062.46;85711;1316;80362;-62
2021/10/29 02:35:16;;;;;;;60.20;41.70;;;;;;;6.65;85.48;101062.24;85765;1317;82915;-64
2021/10/29 02:37:23;;;;;;;59.70;41.70;;;;;;;6.66;85.34;101062.98;85705;1316;96741;-65
2021/10/29 02:39:31;;;;;;;60.00;41.10;;;;;;;6.68;85.31;101057.78;85796;1316;86808;-62
2021/10/29 02:41:41;;;;;;;54.20;37.30;;;;;;;6.69;85.52;101056.79;85770;1316;95088;-63
2021/10/29 02:43:49;;;;;;;60.70;40.50;;;;;;;6.70;85.47;101056.88;85752;1321;81163;-64
2021/10/29 02:45:57;;;;;;;60.00;40.70;;;;;;;6.72;85.58;101057.56;85739;1315;81378;-64
2021/10/29 02:48:08;;;;;;;59.30;39.70;;;;;;;6.72;85.38;101058.08;85755;1316;97037;-63
2021/10/29 02:50:16;;;;;;;59.30;41.30;;;;;;;6.73;85.45;101056.02;85710;1317;86845;-64
2021/10/29 02:52:23;;;;;;;55.30;39.40;;;;;;;6.75;85.51;101056.73;85689;1316;96195;-65
2021/10/29 02:54:31;;;;;;;57.00;39.50;;;;;;;6.79;85.37;101052.55;85752;1317;80387;-65
2021/10/29 02:56:41;;;;;;;53.80;37.30;;;;;;;6.78;85.30;101051.78;85662;1320;80890;-63
2021/10/29 02:58:51;;;;;;;54.60;39.20;;;;;;;6.76;85.27;101048.78;85791;1317;95666;-65
2021/10/29 03:01:03;;;;;;;56.70;40.80;;;;;;;6.73;85.32;101046.40;85799;1316;87544;-65
2021/10/29 03:03:11;;;;;;;65.70;40.90;;;;;;;6.72;85.35;101049.88;85771;1317;94027;-64
2021/10/29 03:05:19;;;;;;;57.70;39.00;;;;;;;6.70;85.41;101047.20;85704;1317;79847;-65
2021/10/29 03:07:26;;;;;;;56.30;37.10;;;;;;;6.68;85.11;101050.96;85670;1316;81426;-65
2021/10/29 03:09:34;;;;;;;55.30;38.60;;;;;;;6.65;85.23;101047.15;85778;1316;99346;-64
2021/10/29 03:11:41;;;;;;;61.60;39.60;;;;;;;6.64;85.15;101044.92;85720;1316;86787;-64
2021/10/29 03:13:49;;;;;;;51.30;37.40;;;;;;;6.63;85.20;101046.41;85695;1315;94122;-65
2021/10/29 03:16:00;;;;;;;57.20;39.50;;;;;;;6.64;85.22;101045.25;85773;1316;80064;-64
2021/10/29 03:18:08;;;;;;;57.20;40.70;;;;;;;6.63;85.01;101046.44;85759;1317;82540;-65
2021/10/29 03:20:16;;;;;;;61.30;39.20;;;;;;;6.61;85.22;101043.08;85735;1316;99057;-65
2021/10/29 03:22:23;;;;;;;59.20;40.20;;;;;;;6.60;85.14;101036.31;85665;1320;87939;-66
2021/10/29 03:24:31;;;;;;;58.80;40.70;;;;;;;6.62;84.99;101036.56;85676;1316;94993;-65
2021/10/29 03:26:44;;;;;;;57.40;37.30;;;;;;;6.62;84.93;101041.40;85810;1316;81917;-65
2021/10/29 03:28:54;;;;;;;54.90;36.80;;;;;;;6.59;84.89;101037.73;85767;1316;82284;-66
2021/10/29 03:31:02;;;;;;;51.20;36.70;;;;;;;6.59;85.08;101034.51;85680;1316;98016;-63
2021/10/29 03:33:13;;;;;;;56.20;38.90;;;;;;;6.60;84.96;101031.54;85694;1316;87021;-64
2021/10/29 03:35:21;;;;;;;53.50;37.30;;;;;;;6.58;84.82;101027.23;85780;1322;95615;-65
2021/10/29 03:40:17;;;;;;;55.30;38.80;;;;;;;6.61;84.86;101024.81;85556;1324;80698;-64
2021/10/29 03:42:29;;;;;;;52.00;34.60;;;;;;;6.62;84.80;101027.77;85578;1317;96974;-64
2021/10/29 03:44:45;;;;;;;54.00;36.50;;;;;;;6.61;84.78;101022.13;85827;1316;88463;-63
2021/10/29 03:46:57;;;;;;;50.20;35.00;;;;;;;6.62;84.65;101025.45;85715;1316;95003;-66
2021/10/29 03:49:14;;;;;;;48.40;35.30;;;;;;;6.61;84.73;101022.13;85707;1316;80288;-64
2021/10/29 03:51:23;;;;;;;53.00;36.20;;;;;;;6.58;84.67;101022.77;85722;1316;82515;-63
2021/10/29 03:53:37;;;;;;;52.50;34.20;;;;;;;6.57;84.46;101023.11;85686;1316;97939;-63
2021/10/29 03:55:45;;;;;;;53.00;35.20;;;;;;;6.55;84.44;101026.48;85711;1316;87790;-65
2021/10/29 03:57:56;;;;;;;50.50;33.80;;;;;;;6.56;84.28;101024.21;85728;1316;94120;-64
2021/10/29 04:00:05;;;;;;;48.50;34.50;;;;;;;6.56;84.47;101023.86;85733;1316;78299;-65
2021/10/29 04:02:15;;;;;;;49.40;35.00;;;;;;;6.55;84.29;101022.55;85710;1316;81164;-64
2021/10/29 04:04:22;;;;;;;52.30;35.00;;;;;;;6.52;84.35;101017.39;85780;1317;98538;-64
2021/10/29 04:06:33;;;;;;;52.00;34.90;;;;;;;6.48;84.19;101016.77;85632;1321;88617;-64
2021/10/29 04:08:44;;;;;;;51.80;35.50;;;;;;;6.44;84.11;101011.98;85751;1321;92851;-64
2021/10/29 04:10:52;;;;;;;46.80;33.30;;;;;;;6.36;84.31;101015.20;85654;1317;82077;-64
2021/10/29 04:13:04;;;;;;;51.10;33.60;;;;;;;6.31;84.41;101006.91;85697;1316;82680;-64
2021/10/29 04:15:12;;;;;;;55.90;36.30;;;;;;;6.28;84.19;101007.94;85737;1320;99560;-66
2021/10/29 04:17:22;;;;;;;51.50;37.80;;;;;;;6.26;84.19;101006.50;85667;1316;89081;-64
2021/10/29 04:19:30;;;;;;;48.60;33.80;;;;;;;6.25;84.32;101003.64;85741;1320;92985;-65
2021/10/29 04:21:39;;;;;;;54.70;36.70;;;;;;;6.19;84.26;101004.77;85744;1316;78510;-66
2021/10/29 04:23:49;;;;;;;54.30;38.40;;;;;;;6.12;84.14;101001.13;85651;1317;82212;-68
2021/10/29 04:25:57;;;;;;;48.60;34.80;;;;;;;6.01;84.28;101001.27;85768;1316;98612;-66
2021/10/29 04:28:09;;;;;;;50.90;36.60;;;;;;;5.93;84.06;101000.42;85737;1316;87914;-63
2021/10/29 04:30:20;;;;;;;51.40;34.60;;;;;;;5.87;84.13;101002.77;85797;1316;94561;-62
2021/10/29 04:32:28;;;;;;;51.70;35.40;;;;;;;5.86;84.19;100999.31;85688;1320;80011;-63
2021/10/29 04:34:38;;;;;;;50.00;36.30;;;;;;;5.83;84.21;100999.78;85764;1319;81639;-68
2021/10/29 04:36:49;;;;;;;48.50;33.30;;;;;;;5.77;84.17;100999.08;85757;1320;98032;-68
2021/10/29 04:39:00;;;;;;;48.50;33.90;;;;;;;5.73;84.12;100998.60;85736;1316;88603;-62
2021/10/29 04:41:08;;;;;;;47.80;32.70;;;;;;;5.72;84.25;101000.61;85726;1322;94999;-62
2021/10/29 04:43:16;;;;;;;47.40;33.40;;;;;;;5.70;84.24;101000.44;85708;1317;79084;-62
2021/10/29 04:45:23;;;;;;;45.00;33.20;;;;;;;5.69;84.27;100998.40;85741;1310;80443;-63
2021/10/29 04:47:30;;;;;;;49.80;33.80;;;;;;;5.66;84.27;100995.63;85746;1316;98266;-64
2021/10/29 04:49:41;;;;;;;47.80;34.00;;;;;;;5.61;84.02;100996.81;85715;1316;87265;-64
2021/10/29 04:51:49;;;;;;;47.40;32.60;;;;;;;5.59;84.23;100997.38;85711;1317;93363;-64
2021/10/29 04:53:57;;;;;;;47.00;34.80;;;;;;;5.61;84.22;100997.94;85665;1320;79453;-62
2021/10/29 04:56:05;;;;;;;48.10;33.80;;;;;;;5.62;84.31;100997.13;85658;1316;79892;-62
2021/10/29 04:58:12;;;;;;;46.20;33.10;;;;;;;5.64;84.32;100994.38;85658;1319;97097;-64
2021/10/29 05:00:23;;;;;;;46.60;33.90;;;;;;;5.62;84.43;100996.74;85825;1314;86631;-63
2021/10/29 05:02:30;;;;;;;52.10;35.30;;;;;;;5.62;84.46;100995.00;85775;1316;94906;-64
2021/10/29 05:04:38;;;;;;;52.70;34.50;;;;;;;5.62;84.47;101001.58;85790;1316;81542;-65
2021/10/29 05:06:46;;;;;;;50.60;36.80;;;;;;;5.65;84.49;100998.30;85798;1316;81490;-64
2021/10/29 05:08:54;;;;;;;48.50;34.80;;;;;;;5.68;84.88;100994.61;85728;1322;98960;-63
2021/10/29 05:11:01;;;;;;;50.60;33.20;;;;;;;5.72;84.59;100993.65;85759;1320;90236;-65
2021/10/29 05:13:12;;;;;;;48.80;35.30;;;;;;;5.72;84.92;100988.86;85647;1316;93303;-64
2021/10/29 05:15:20;;;;;;;50.70;34.60;;;;;;;5.69;84.86;100984.27;85680;1316;80103;-64
2021/10/29 05:17:31;;;;;;;51.50;35.60;;;;;;;5.72;84.79;100986.02;85685;1316;82339;-62
2021/10/29 05:19:39;;;;;;;50.10;34.60;;;;;;;5.75;84.72;100984.43;85770;1320;98113;-62
2021/10/29 05:21:46;;;;;;;46.10;33.90;;;;;;;5.79;84.89;100983.66;85686;1316;88738;-63
2021/10/29 05:23:54;;;;;;;49.40;34.30;;;;;;;5.82;85.04;100987.52;85756;1319;94064;-63
2021/10/29 05:26:01;;;;;;;50.20;35.30;;;;;;;5.85;85.18;100986.02;85682;1307;79830;-62
2021/10/29 05:28:10;;;;;;;50.30;35.40;;;;;;;5.86;85.04;100986.08;85717;1320;81858;-63
2021/10/29 05:30:21;;;;;;;52.00;35.70;;;;;;;5.88;85.16;100990.36;85743;1316;97061;-64
2021/10/29 05:32:32;;;;;;;49.90;36.10;;;;;;;5.89;85.00;100986.13;85728;1316;87043;-63
2021/10/29 05:34:40;;;;;;;52.50;36.10;;;;;;;5.91;84.98;100988.63;85795;1322;94937;-64
2021/10/29 05:36:49;;;;;;;51.80;35.70;;;;;;;5.92;84.96;100991.74;85692;1317;81086;-65
2021/10/29 05:38:59;;;;;;;56.10;35.20;;;;;;;5.93;85.22;100995.77;85803;1322;81758;-65
2021/10/29 05:41:07;;;;;;;50.80;34.80;;;;;;;5.96;85.05;100990.51;85717;1316;97883;-64
2021/10/29 05:43:21;;;;;;;56.40;36.10;;;;;;;5.99;84.86;100989.85;85773;1316;88618;-64
2021/10/29 05:45:29;;;;;;;46.00;33.30;;;;;;;5.95;85.08;100993.48;85776;1322;94476;-64
2021/10/29 05:47:39;;;;;;;49.10;35.10;;;;;;;5.90;85.09;100990.87;85787;1322;82252;-64
2021/10/29 05:49:47;;;;;;;55.80;35.60;;;;;;;5.91;84.76;100995.80;85755;1317;82096;-65
2021/10/29 05:51:57;;;;;;;54.60;35.40;;;;;;;5.92;84.99;100995.17;85706;1320;98064;-65
2021/10/29 05:54:11;;;;;;;50.80;35.10;;;;;;;5.96;84.74;100994.09;85799;1319;87600;-65
2021/10/29 05:56:21;;;;;;;49.50;35.50;;;;;;;6.00;84.92;100996.17;85674;1319;93114;-64
2021/10/29 05:58:29;;;;;;;51.10;34.80;;;;;;;6.02;84.70;100994.44;85705;1316;79562;-65
2021/10/29 06:00:37;;;;;;;55.80;36.80;;;;;;;6.04;84.86;100993.71;85683;1317;82920;-63
2021/10/29 06:02:47;;;;;;;54.60;36.60;;;;;;;6.04;84.80;100991.17;85696;1323;98147;-62
2021/10/29 06:04:58;;;;;;;47.80;33.20;;;;;;;6.10;84.86;100993.66;85665;1316;88961;-65
2021/10/29 06:07:07;;;;;;;49.80;34.90;;;;;;;6.14;84.82;100996.30;85752;1316;95414;-64
2021/10/29 06:09:17;;;;;;;51.70;35.70;;;;;;;6.16;84.90;100992.71;85774;1317;79393;-66
2021/10/29 06:11:28;;;;;;;50.00;34.50;;;;;;;6.19;85.01;100996.50;85790;1316;83441;-64
2021/10/29 06:13:36;;;;;;;49.30;32.00;;;;;;;6.22;84.92;100994.55;85691;1316;96231;-63
2021/10/29 06:15:47;;;;;;;48.50;33.10;;;;;;;6.25;84.92;100989.08;85647;1317;88688;-64
2021/10/29 06:17:55;;;;;;;50.00;34.10;;;;;;;6.34;84.96;100991.42;85728;1320;94146;-64
2021/10/29 06:20:04;;;;;;;47.10;34.90;;;;;;;6.53;85.08;100992.80;85755;1319;78901;-65
2021/10/29 06:22:16;;;;;;;44.20;30.10;;;;;;;6.66;84.95;100997.96;85707;1316;80856;-66
2021/10/29 06:24:28;;;;;;;50.90;34.80;;;;;;;6.74;84.88;100993.48;85764;1317;96199;-64
2021/10/29 06:26:48;;;;;;;51.60;36.10;;;;;;;6.88;84.96;100999.55;85649;1320;88174;-65
2021/10/29 06:28:56;;;;;;;50.80;34.40;;;;;;;7.30;85.57;101001.57;85680;1317;93308;-64
2021/10/29 06:31:03;;;;;;;49.60;36.20;;;;;;;8.12;86.13;101002.48;85671;1316;80352;-63
2021/10/29 06:33:18;;;;;;;49.30;35.20;;;;;;;8.78;85.42;101007.33;85758;1315;81330;-64
2021/10/29 06:35:25;;;;;;;67.00;46.40;;;;;;;9.57;84.65;101008.36;85661;1319;95605;-66
2021/10/29 06:37:37;;;;;;;51.30;37.30;;;;;;;10.26;83.87;101003.87;85674;1321;87431;-63
2021/10/29 06:39:47;;;;;;;44.70;34.30;;;;;;;10.60;81.82;101008.06;85713;1319;92801;-63
2021/10/29 06:41:55;;;;;;;44.90;33.40;;;;;;;11.16;81.37;101006.30;85740;1320;80067;-65
2021/10/29 06:44:16;;;;;;;40.80;31.90;;;;;;;11.81;80.32;101006.30;85754;1316;82274;-64
2021/10/29 06:46:34;;;;;;;44.40;32.50;;;;;;;12.25;78.74;101006.88;85696;1322;97635;-66
2021/10/29 06:48:55;;;;;;;40.50;31.20;;;;;;;12.82;78.04;101008.89;85759;1316;89913;-64
2021/10/29 07:00:47;;;;;;;40.00;31.10;;;;;;;14.95;72.51;101006.65;85759;1320;87516;-65
2021/10/29 07:03:26;;;;;;;34.90;29.80;;;;;;;15.37;71.57;101006.02;85641;1317;92790;-64
2021/10/29 07:40:12;;;;;;;33.00;26.60;;;;;;;19.71;56.75;101011.25;85711;1316;92888;-63
2021/10/29 07:42:24;;;;;;;30.00;26.80;;;;;;;19.88;55.55;101018.23;85682;1316;80844;-64
2021/10/29 07:44:32;;;;;;;33.90;26.90;;;;;;;19.97;55.44;101012.23;85772;1320;82110;-64
2021/10/29 07:46:43;;;;;;;32.80;29.00;;;;;;;20.37;55.15;101014.27;85683;1317;95657;-64
2021/10/29 07:48:51;;;;;;;28.90;26.00;;;;;;;20.49;54.41;101013.30;85651;1316;88559;-63
2021/10/29 07:50:59;;;;;;;31.60;26.90;;;;;;;20.80;53.72;101018.11;85638;1317;94398;-63
2021/10/29 07:53:06;;;;;;;30.20;26.90;;;;;;;20.96;52.70;101017.02;85674;1316;79675;-64
2021/10/29 07:55:16;;;;;;;31.50;27.10;;;;;;;21.16;52.44;101014.46;85745;1322;81933;-63
2021/10/29 07:57:27;;;;;;;30.00;26.60;;;;;;;21.36;51.29;101014.05;85649;1316;98530;-63
2021/10/29 07:59:37;;;;;;;31.70;27.50;;;;;;;21.44;51.16;101014.65;85708;1321;87386;-68
2021/10/29 08:01:45;;;;;;;30.70;27.00;;;;;;;21.21;50.88;101011.30;85648;1320;94577;-65
2021/10/29 08:03:53;;;;;;;32.50;27.00;;;;;;;19.83;50.17;101013.02;85797;1317;79231;-62
2021/10/29 08:06:01;;;;;;;34.40;27.70;;;;;;;17.96;50.65;101018.73;85690;1316;82314;-63
2021/10/29 08:08:09;;;;;;;32.40;27.30;;;;;;;17.18;52.59;101018.73;85643;1316;97833;-64
2021/10/29 08:10:17;;;;;;;33.60;27.00;;;;;;;16.68;53.32;101022.79;85672;1317;88738;-63
2021/10/29 08:12:25;;;;;;;31.70;26.40;;;;;;;16.22;53.58;101023.08;85694;1316;94355;-63
2021/10/29 08:14:32;;;;;;;36.30;27.60;;;;;;;15.31;54.23;101017.80;85729;1320;79203;-64
2021/10/29 08:16:40;;;;;;;33.10;27.40;;;;;;;14.94;54.92;101026.98;85652;1316;82747;-63
2021/10/29 08:18:51;;;;;;;30.20;26.70;;;;;;;14.76;55.26;101025.78;85739;1316;96890;-65
2021/10/29 08:20:59;;;;;;;36.50;28.30;;;;;;;14.94;55.39;101023.95;85689;1316;88498;-65
2021/10/29 08:25:36;;;;;;;32.80;28.00;;;;;;;14.44;56.54;101024.56;86012;1308;79501;-62
2021/10/29 08:27:45;;;;;;;33.30;27.00;;;;;;;14.69;56.99;101020.48;85427;1321;82572;-62
2021/10/29 08:29:53;;;;;;;31.40;27.00;;;;;;;14.54;57.12;101022.38;85416;1322;97922;-65
2021/10/29 08:32:02;;;;;;;33.90;26.90;;;;;;;14.34;57.64;101015.61;85508;1322;88965;-66
2021/10/29 08:34:12;;;;;;;33.50;26.30;;;;;;;14.35;58.02;101024.92;85375;1325;94840;-64
2021/10/29 08:36:20;;;;;;;32.20;26.60;;;;;;;14.17;58.37;101018.46;85450;1322;80011;-62
2021/10/29 08:38:31;;;;;;;32.70;26.90;;;;;;;14.14;58.67;101016.14;85416;1322;81063;-62
2021/10/29 08:40:43;;;;;;;34.60;27.40;;;;;;;14.68;58.84;101019.11;85416;1322;97875;-64
2021/10/29 08:42:51;;;;;;;34.30;28.00;;;;;;;15.49;58.26;101012.03;85388;1322;88698;-65
2021/10/29 08:45:04;;;;;;;33.10;26.80;;;;;;;16.30;57.30;101007.52;85449;1322;94846;-62
2021/10/29 08:47:12;;;;;;;30.50;24.80;;;;;;;17.33;56.88;101005.69;85555;1312;78394;-63
2021/10/29 08:49:20;;;;;;;31.20;26.60;;;;;;;18.07;54.71;101003.84;85532;1317;82971;-63
2021/10/29 08:51:28;;;;;;;32.00;25.30;;;;;;;18.41;54.33;101002.99;85579;1319;99185;-61
2021/10/29 08:53:38;;;;;;;27.20;24.30;;;;;;;19.05;53.52;101002.54;85540;1319;88532;-63
2021/10/29 08:55:46;;;;;;;32.70;26.30;;;;;;;19.06;52.59;101001.05;85591;1318;94736;-64
2021/10/29 08:57:54;;;;;;;27.20;23.80;;;;;;;19.51;52.51;101001.42;85533;1325;80753;-63
2021/10/29 09:00:04;;;;;;;28.80;23.00;;;;;;;19.94;52.04;101001.55;85528;1325;81986;-63
2021/10/29 09:02:16;;;;;;;26.10;22.10;;;;;;;20.32;50.83;101001.30;85486;1319;97918;-62
2021/10/29 09:04:39;;;;;;;27.60;22.20;;;;;;;20.58;50.49;101000.33;85547;1317;88292;-61
2021/10/29 09:06:55;;;;;;;25.20;22.50;;;;;;;21.17;50.63;100999.02;85546;1323;95013;-64
2021/10/29 09:09:08;;;;;;;26.20;23.20;;;;;;;21.32;50.09;101001.03;85524;1323;80023;-62
2021/10/29 09:11:32;;;;;;;;;;;;;;;21.51;49.21;101002.16;85560;1324;82476;-66
2021/10/29 09:31:33;;;;;;;26.50;22.80;;;;;;;21.80;46.94;101001.02;85644;1321;93275;-61
2021/10/29 09:33:49;;;;;;;24.60;22.00;;;;;;;21.80;46.41;101001.90;85543;1316;78349;-64
2021/10/29 09:35:56;;;;;;;25.40;22.40;;;;;;;21.69;46.60;101001.95;85569;1319;80683;-68
2021/10/29 09:38:11;;;;;;;25.00;22.20;;;;;;;21.86;46.14;101004.48;85672;1319;95811;-64
2021/10/29 09:40:21;;;;;;;25.30;22.60;;;;;;;21.82;45.86;101002.19;85593;1319;86957;-63
2021/10/29 09:42:36;;;;;;;24.80;22.20;;;;;;;21.82;45.67;100998.14;85598;1322;94862;-65
2021/10/29 09:44:52;;;;;;;24.70;21.70;;;;;;;21.76;44.77;101000.22;85575;1315;78307;-65
2021/10/29 09:47:05;;;;;;;25.50;22.60;;;;;;;21.68;44.44;101003.55;85536;1317;82038;-65
2021/10/29 09:49:26;;;;;;;24.80;22.30;;;;;;;21.59;45.20;101003.20;85532;1323;98122;-63
2021/10/29 09:51:47;;;;;;;25.70;23.00;;;;;;;21.58;44.43;101000.05;85619;1325;87797;-62
2021/10/29 09:54:11;;;;;;;25.80;22.80;;;;;;;21.17;45.03;100999.16;85579;1325;95270;-64
2021/10/29 09:58:57;;;;;;;27.70;23.50;;;;;;;19.98;44.76;100993.47;86010;1307;81055;-64
2021/10/29 10:01:06;;;;;;;27.90;23.20;;;;;;;19.35;46.14;100994.71;85610;1318;98005;-63
2021/10/29 10:03:15;;;;;;;27.20;22.80;;;;;;;18.72;46.28;100997.80;85557;1322;88324;-63
2021/10/29 10:05:24;;;;;;;28.10;23.10;;;;;;;18.28;46.88;100996.07;85626;1319;94838;-64
2021/10/29 10:07:36;;;;;;;27.50;23.90;;;;;;;17.87;47.56;100990.17;85462;1319;79555;-63
2021/10/29 10:09:45;;;;;;;28.60;23.20;;;;;;;17.36;47.96;100997.23;85640;1325;82038;-63
2021/10/29 10:11:58;;;;;;;28.00;24.30;;;;;;;16.77;48.70;100994.18;85521;1326;98401;-63
2021/10/29 10:14:09;;;;;;;27.00;22.70;;;;;;;16.43;49.05;100991.93;85635;1326;89012;-64
2021/10/29 10:16:17;;;;;;;27.00;23.10;;;;;;;15.98;49.77;100990.05;85615;1323;94224;-64
2021/10/29 10:18:28;;;;;;;29.50;22.70;;;;;;;15.84;50.41;100989.80;85660;1326;79711;-64
2021/10/29 10:20:36;;;;;;;26.70;23.50;;;;;;;15.71;50.86;100983.76;85652;1322;81789;-63
2021/10/29 10:22:49;;;;;;;29.90;23.60;;;;;;;15.46;51.16;100984.84;85521;1320;98463;-64
2021/10/29 10:25:01;;;;;;;;;;;;;;;15.30;51.74;100983.48;85653;1323;85827;-63
2021/10/29 10:27:34;;;;;;;30.00;24.10;;;;;;;15.17;52.39;100982.24;85608;1319;94112;-62
2021/10/29 10:42:30;;;;;;;31.40;22.40;;;;;;;14.55;54.60;100974.12;85574;1319;80111;-62
2021/10/29 10:44:48;;;;;;;32.30;25.80;;;;;;;14.44;54.69;100970.91;85587;1322;82395;-63
2021/10/29 10:46:58;;;;;;;30.00;22.40;;;;;;;14.28;55.08;100974.52;85524;1318;99262;-63
2021/10/29 10:49:11;;;;;;;30.80;24.70;;;;;;;14.07;55.37;100968.73;85647;1319;87321;-65
2021/10/29 10:51:46;;;;;;;32.90;25.10;;;;;;;13.98;55.81;100971.17;85636;1319;94259;-63
2021/10/29 10:54:02;;;;;;;34.40;25.20;;;;;;;13.97;56.00;100970.33;85638;1318;80580;-63
2021/10/29 10:58:38;;;;;;;32.60;24.10;;;;;;;14.08;56.21;100964.46;85644;1323;99201;-63
2021/10/29 11:00:56;;;;;;;30.70;23.10;;;;;;;14.13;56.41;100962.88;85563;1320;86157;-62
2021/10/29 11:03:25;;;;;;;32.90;24.50;;;;;;;14.05;56.49;100960.80;85603;1326;94055;-62
2021/10/29 11:10:59;;;;;;;36.10;25.70;;;;;;;13.94;56.86;100955.79;85680;1325;98967;-63
2021/10/29 11:13:13;;;;;;;32.70;25.10;;;;;;;13.94;56.97;100956.72;85610;1319;87841;-64
2021/10/29 11:15:25;;;;;;;35.50;26.30;;;;;;;13.98;57.25;100955.79;85605;1322;93175;-64
2021/10/29 11:17:49;;;;;;;30.50;24.30;;;;;;;13.98;57.29;100951.48;85589;1323;79378;-63
2021/10/29 11:19:58;;;;;;;;;;;;;;;13.93;57.40;100946.10;85537;1320;80885;-63
2021/10/29 11:22:05;;;;;;;32.90;26.00;;;;;;;13.95;57.44;100947.78;85604;1319;96995;-63
2021/10/29 11:24:15;;;;;;;31.80;25.20;;;;;;;13.92;57.65;100943.29;85650;1319;87912;-63
2021/10/29 11:26:37;;;;;;;32.20;26.50;;;;;;;13.92;57.69;100942.99;85647;1319;93481;-64
2021/10/29 11:28:52;;;;;;;34.20;25.30;;;;;;;13.93;57.77;100938.36;85551;1319;80163;-63